PWSweather.com
Personal Weather Stations
Station Observations
PICKERING
North Yorkshire, PickeringGB

North YorkshirePickeringGB

Lat: 54.2494, Lon: -0.7725

Elevation: 192

Station Type: Oregon Scientific WMR100

http://www.yorkshirewalker.co.uk/weather/

High Low Average
Temperature 48.6°F9.2°C 37.4°F3.0°C 43.2°F6.2°C
Dew Point 46.4°F8.0°C 33.8°F1.0°C 40.3°F4.6°C
Winds 5.6 mph 9.0 kmh Calm Calm 2.0 mph SE3.2 kmh SE
Wind Gusts 11.0 mph17.7 kmh -- 3.0 mph4.8 kmh
Humidity 92% 83% 88%
Pressure 29.45 in997.3 mb 29.03 in983.1 mb -
Precipitation 0.70 in17.8 mm - -
Hour Temp Dew Point Humidity Winds Wind Gusts Pressure Precip Precip Rate Daily Precip Total
12:00 AM 39.0°F3.9°C 35.6°F2.0°C 84% 3.4 mph WSW5.5 kmh WSW 7.4 mph11.9 kmh 29.41 in995.9 mb 0.00 in0.0 mm 0.00 in0.0 mm 0.00 in0.0 mm
12:05 AM 39.2°F4.0°C 35.6°F2.0°C 84% 2.8 mph WSW4.5 kmh WSW 7.4 mph11.9 kmh 29.45 in997.3 mb 0.00 in0.0 mm 0.00 in0.0 mm 0.00 in0.0 mm
12:10 AM 39.6°F4.2°C 35.6°F2.0°C 83% 3.2 mph WSW5.1 kmh WSW 5.4 mph8.7 kmh 29.45 in997.3 mb 0.00 in0.0 mm 0.00 in0.0 mm 0.00 in0.0 mm
12:15 AM 39.6°F4.2°C 35.6°F2.0°C 83% 3.1 mph WSW5.0 kmh WSW 5.4 mph8.7 kmh 29.45 in997.3 mb 0.00 in0.0 mm 0.00 in0.0 mm 0.00 in0.0 mm
12:20 AM 39.6°F4.2°C 35.6°F2.0°C 83% 2.0 mph WSW3.2 kmh WSW 4.0 mph6.4 kmh 29.45 in997.3 mb 0.00 in0.0 mm 0.00 in0.0 mm 0.00 in0.0 mm
12:25 AM 39.6°F4.2°C 35.6°F2.0°C 83% 2.0 mph SW3.2 kmh SW 3.6 mph5.8 kmh 29.45 in997.3 mb 0.00 in0.0 mm 0.00 in0.0 mm 0.00 in0.0 mm
12:30 AM 39.6°F4.2°C 35.6°F2.0°C 83% 2.4 mph SW3.9 kmh SW 6.3 mph10.1 kmh 29.45 in997.3 mb 0.00 in0.0 mm 0.00 in0.0 mm 0.00 in0.0 mm
12:35 AM 39.4°F4.1°C 33.8°F1.0°C 83% 2.5 mph WSW4.0 kmh WSW 6.3 mph10.1 kmh 29.41 in995.9 mb 0.00 in0.0 mm 0.00 in0.0 mm 0.00 in0.0 mm
12:40 AM 39.0°F3.9°C 33.8°F1.0°C 83% 2.7 mph WSW4.3 kmh WSW 5.8 mph9.3 kmh 29.41 in995.9 mb 0.00 in0.0 mm 0.00 in0.0 mm 0.00 in0.0 mm
12:45 AM 39.2°F4.0°C 35.6°F2.0°C 84% 2.3 mph WSW3.7 kmh WSW 4.7 mph7.6 kmh 29.41 in995.9 mb 0.00 in0.0 mm 0.00 in0.0 mm 0.00 in0.0 mm
12:50 AM 39.6°F4.2°C 35.6°F2.0°C 84% 2.1 mph SW3.4 kmh SW 3.8 mph6.1 kmh 29.45 in997.3 mb 0.00 in0.0 mm 0.00 in0.0 mm 0.00 in0.0 mm
12:55 AM 39.7°F4.3°C 35.6°F2.0°C 84% 2.8 mph SW4.5 kmh SW 4.0 mph6.4 kmh 29.45 in997.3 mb 0.00 in0.0 mm 0.00 in0.0 mm 0.00 in0.0 mm
01:00 AM 39.7°F4.3°C 35.6°F2.0°C 83% 2.9 mph WSW4.7 kmh WSW 4.0 mph6.4 kmh 29.45 in997.3 mb 0.00 in0.0 mm 0.00 in0.0 mm 0.00 in0.0 mm
01:05 AM 39.7°F4.3°C 35.6°F2.0°C 83% 3.2 mph WSW5.1 kmh WSW 4.9 mph7.9 kmh 29.41 in995.9 mb 0.00 in0.0 mm 0.00 in0.0 mm 0.00 in0.0 mm
01:10 AM 39.7°F4.3°C 35.6°F2.0°C 83% 3.5 mph WSW5.6 kmh WSW 5.4 mph8.7 kmh 29.41 in995.9 mb 0.00 in0.0 mm 0.00 in0.0 mm 0.00 in0.0 mm
01:15 AM 39.7°F4.3°C 35.6°F2.0°C 83% 3.2 mph WSW5.1 kmh WSW 5.4 mph8.7 kmh 29.41 in995.9 mb 0.00 in0.0 mm 0.00 in0.0 mm 0.00 in0.0 mm
01:20 AM 39.7°F4.3°C 35.6°F2.0°C 83% 3.3 mph WSW5.3 kmh WSW 5.4 mph8.7 kmh 29.45 in997.3 mb 0.00 in0.0 mm 0.00 in0.0 mm 0.00 in0.0 mm
01:25 AM 39.6°F4.2°C 35.6°F2.0°C 83% 2.9 mph SW4.7 kmh SW 4.9 mph7.9 kmh 29.45 in997.3 mb 0.00 in0.0 mm 0.00 in0.0 mm 0.00 in0.0 mm
01:30 AM 39.4°F4.1°C 33.8°F1.0°C 83% 1.9 mph SW3.1 kmh SW 3.4 mph5.5 kmh 29.45 in997.3 mb 0.00 in0.0 mm 0.00 in0.0 mm 0.00 in0.0 mm
01:35 AM 39.4°F4.1°C 33.8°F1.0°C 83% 1.8 mph SW2.9 kmh SW 3.1 mph5.0 kmh 29.45 in997.3 mb 0.00 in0.0 mm 0.00 in0.0 mm 0.00 in0.0 mm
01:40 AM 39.4°F4.1°C 35.6°F2.0°C 84% 1.5 mph WSW2.4 kmh WSW 3.1 mph5.0 kmh 29.45 in997.3 mb 0.00 in0.0 mm 0.00 in0.0 mm 0.00 in0.0 mm
01:45 AM 39.4°F4.1°C 33.8°F1.0°C 83% 0.9 mph WSW1.4 kmh WSW 2.7 mph4.3 kmh 29.45 in997.3 mb 0.00 in0.0 mm 0.00 in0.0 mm 0.00 in0.0 mm
01:50 AM 39.6°F4.2°C 35.6°F2.0°C 83% 0.9 mph SW1.4 kmh SW 2.0 mph3.2 kmh 29.45 in997.3 mb 0.00 in0.0 mm 0.00 in0.0 mm 0.00 in0.0 mm
01:55 AM 39.6°F4.2°C 35.6°F2.0°C 83% 1.8 mph WSW2.9 kmh WSW 3.4 mph5.5 kmh 29.45 in997.3 mb 0.00 in0.0 mm 0.00 in0.0 mm 0.00 in0.0 mm
02:00 AM 39.7°F4.3°C 35.6°F2.0°C 83% 2.2 mph WSW3.5 kmh WSW 3.4 mph5.5 kmh 29.45 in997.3 mb 0.00 in0.0 mm 0.00 in0.0 mm 0.00 in0.0 mm
02:05 AM 39.6°F4.2°C 35.6°F2.0°C 83% 1.1 mph WSW1.8 kmh WSW 2.9 mph4.7 kmh 29.45 in997.3 mb 0.00 in0.0 mm 0.00 in0.0 mm 0.00 in0.0 mm
02:10 AM 39.4°F4.1°C 33.8°F1.0°C 83% 0.8 mph WSW1.3 kmh WSW 2.2 mph3.5 kmh 29.45 in997.3 mb 0.00 in0.0 mm 0.00 in0.0 mm 0.00 in0.0 mm
02:15 AM 39.4°F4.1°C 33.8°F1.0°C 83% 1.1 mph SW1.8 kmh SW 2.2 mph3.5 kmh 29.45 in997.3 mb 0.00 in0.0 mm 0.00 in0.0 mm 0.00 in0.0 mm
02:20 AM 39.2°F4.0°C 33.8°F1.0°C 83% 0.7 mph SW1.1 kmh SW 2.7 mph4.3 kmh 29.45 in997.3 mb 0.00 in0.0 mm 0.00 in0.0 mm 0.00 in0.0 mm
02:25 AM 39.2°F4.0°C 33.8°F1.0°C 83% 0.7 mph WSW1.1 kmh WSW 2.7 mph4.3 kmh 29.45 in997.3 mb 0.00 in0.0 mm 0.00 in0.0 mm 0.00 in0.0 mm
02:30 AM 38.8°F3.8°C 33.8°F1.0°C 83% 0.3 mph WSW0.5 kmh WSW 1.6 mph2.6 kmh 29.45 in997.3 mb 0.00 in0.0 mm 0.00 in0.0 mm 0.00 in0.0 mm
02:35 AM 38.8°F3.8°C 33.8°F1.0°C 84% Calm Calm -- 29.45 in997.3 mb 0.00 in0.0 mm 0.00 in0.0 mm 0.00 in0.0 mm
02:40 AM 39.2°F4.0°C 35.6°F2.0°C 84% Calm Calm -- 29.45 in997.3 mb 0.00 in0.0 mm 0.00 in0.0 mm 0.00 in0.0 mm
02:45 AM 39.0°F3.9°C 35.6°F2.0°C 84% Calm Calm -- 29.45 in997.3 mb 0.00 in0.0 mm 0.00 in0.0 mm 0.00 in0.0 mm
02:50 AM 39.0°F3.9°C 35.6°F2.0°C 84% 0.1 mph NE0.2 kmh NE 0.9 mph1.4 kmh 29.45 in997.3 mb 0.00 in0.0 mm 0.00 in0.0 mm 0.00 in0.0 mm
02:55 AM 39.0°F3.9°C 35.6°F2.0°C 84% 0.3 mph NE0.5 kmh NE 0.9 mph1.4 kmh 29.45 in997.3 mb 0.00 in0.0 mm 0.00 in0.0 mm 0.00 in0.0 mm
03:00 AM 39.0°F3.9°C 35.6°F2.0°C 84% 0.6 mph ENE1.0 kmh ENE 1.6 mph2.6 kmh 29.45 in997.3 mb 0.00 in0.0 mm 0.00 in0.0 mm 0.00 in0.0 mm
03:05 AM 38.8°F3.8°C 33.8°F1.0°C 84% 0.5 mph E0.8 kmh E 1.6 mph2.6 kmh 29.45 in997.3 mb 0.00 in0.0 mm 0.00 in0.0 mm 0.00 in0.0 mm
03:10 AM 38.7°F3.7°C 33.8°F1.0°C 84% 0.1 mph E0.2 kmh E 1.3 mph2.1 kmh 29.45 in997.3 mb 0.00 in0.0 mm 0.00 in0.0 mm 0.00 in0.0 mm
03:15 AM 38.7°F3.7°C 33.8°F1.0°C 84% 0.2 mph E0.3 kmh E 1.3 mph2.1 kmh 29.45 in997.3 mb 0.00 in0.0 mm 0.00 in0.0 mm 0.00 in0.0 mm
03:20 AM 38.5°F3.6°C 33.8°F1.0°C 84% 0.1 mph ESE0.2 kmh ESE 0.9 mph1.4 kmh 29.41 in995.9 mb 0.00 in0.0 mm 0.00 in0.0 mm 0.00 in0.0 mm
03:25 AM 38.3°F3.5°C 33.8°F1.0°C 84% 0.5 mph N0.8 kmh N 2.2 mph3.5 kmh 29.41 in995.9 mb 0.00 in0.0 mm 0.00 in0.0 mm 0.00 in0.0 mm
03:30 AM 38.5°F3.6°C 33.8°F1.0°C 84% 0.9 mph N1.4 kmh N 2.2 mph3.5 kmh 29.41 in995.9 mb 0.00 in0.0 mm 0.00 in0.0 mm 0.00 in0.0 mm
03:35 AM 38.3°F3.5°C 33.8°F1.0°C 84% 0.4 mph N0.6 kmh N 1.3 mph2.1 kmh 29.41 in995.9 mb 0.00 in0.0 mm 0.00 in0.0 mm 0.00 in0.0 mm
03:40 AM 38.3°F3.5°C 33.8°F1.0°C 84% 0.1 mph E0.2 kmh E 1.1 mph1.8 kmh 29.41 in995.9 mb 0.00 in0.0 mm 0.00 in0.0 mm 0.00 in0.0 mm
03:45 AM 38.3°F3.5°C 33.8°F1.0°C 84% 0.3 mph E0.5 kmh E 1.3 mph2.1 kmh 29.41 in995.9 mb 0.00 in0.0 mm 0.00 in0.0 mm 0.00 in0.0 mm
03:50 AM 38.3°F3.5°C 33.8°F1.0°C 84% 0.3 mph E0.5 kmh E 1.3 mph2.1 kmh 29.41 in995.9 mb 0.00 in0.0 mm 0.00 in0.0 mm 0.00 in0.0 mm
03:55 AM 38.1°F3.4°C 33.8°F1.0°C 84% 0.1 mph E0.2 kmh E 1.1 mph1.8 kmh 29.41 in995.9 mb 0.00 in0.0 mm 0.00 in0.0 mm 0.00 in0.0 mm
04:00 AM 38.1°F3.4°C 33.8°F1.0°C 85% 0.1 mph S0.2 kmh S 0.9 mph1.4 kmh 29.41 in995.9 mb 0.00 in0.0 mm 0.00 in0.0 mm 0.00 in0.0 mm
04:05 AM 38.1°F3.4°C 33.8°F1.0°C 85% 0.5 mph SW0.8 kmh SW 1.6 mph2.6 kmh 29.41 in995.9 mb 0.00 in0.0 mm 0.00 in0.0 mm 0.00 in0.0 mm
04:10 AM 38.1°F3.4°C 33.8°F1.0°C 85% 0.9 mph SW1.4 kmh SW 2.7 mph4.3 kmh 29.41 in995.9 mb 0.00 in0.0 mm 0.00 in0.0 mm 0.00 in0.0 mm
04:15 AM 38.3°F3.5°C 35.6°F2.0°C 85% 0.8 mph SSW1.3 kmh SSW 2.7 mph4.3 kmh 29.41 in995.9 mb 0.00 in0.0 mm 0.00 in0.0 mm 0.00 in0.0 mm
04:20 AM 38.3°F3.5°C 35.6°F2.0°C 85% 1.0 mph S1.6 kmh S 2.7 mph4.3 kmh 29.41 in995.9 mb 0.00 in0.0 mm 0.00 in0.0 mm 0.00 in0.0 mm
04:25 AM 38.1°F3.4°C 33.8°F1.0°C 85% 0.6 mph S1.0 kmh S 2.7 mph4.3 kmh 29.41 in995.9 mb 0.00 in0.0 mm 0.00 in0.0 mm 0.00 in0.0 mm
04:30 AM 37.9°F3.3°C 33.8°F1.0°C 85% Calm Calm -- 29.41 in995.9 mb 0.00 in0.0 mm 0.00 in0.0 mm 0.00 in0.0 mm
04:35 AM 37.8°F3.2°C 33.8°F1.0°C 85% 0.1 mph S0.2 kmh S 0.9 mph1.4 kmh 29.41 in995.9 mb 0.00 in0.0 mm 0.00 in0.0 mm 0.00 in0.0 mm
04:40 AM 37.8°F3.2°C 33.8°F1.0°C 85% 0.3 mph S0.5 kmh S 1.1 mph1.8 kmh 29.41 in995.9 mb 0.00 in0.0 mm 0.00 in0.0 mm 0.00 in0.0 mm
04:45 AM 37.9°F3.3°C 33.8°F1.0°C 85% 0.2 mph S0.3 kmh S 1.1 mph1.8 kmh 29.41 in995.9 mb 0.00 in0.0 mm 0.00 in0.0 mm 0.00 in0.0 mm
04:50 AM 37.9°F3.3°C 33.8°F1.0°C 85% Calm Calm -- 29.41 in995.9 mb 0.00 in0.0 mm 0.00 in0.0 mm 0.00 in0.0 mm
04:55 AM 37.8°F3.2°C 33.8°F1.0°C 85% Calm Calm -- 29.41 in995.9 mb 0.00 in0.0 mm 0.00 in0.0 mm 0.00 in0.0 mm
05:00 AM 37.6°F3.1°C 33.8°F1.0°C 85% Calm Calm -- 29.41 in995.9 mb 0.00 in0.0 mm 0.00 in0.0 mm 0.00 in0.0 mm
05:05 AM 37.6°F3.1°C 33.8°F1.0°C 85% 0.3 mph E0.5 kmh E 0.9 mph1.4 kmh 29.39 in995.3 mb 0.00 in0.0 mm 0.00 in0.0 mm 0.00 in0.0 mm
05:10 AM 37.4°F3.0°C 33.8°F1.0°C 85% 0.4 mph E0.6 kmh E 0.9 mph1.4 kmh 29.39 in995.3 mb 0.00 in0.0 mm 0.00 in0.0 mm 0.00 in0.0 mm
05:15 AM 37.6°F3.1°C 33.8°F1.0°C 85% 0.2 mph SE0.3 kmh SE 1.1 mph1.8 kmh 29.39 in995.3 mb 0.00 in0.0 mm 0.00 in0.0 mm 0.00 in0.0 mm
05:20 AM 37.9°F3.3°C 33.8°F1.0°C 85% 0.7 mph SE1.1 kmh SE 3.1 mph5.0 kmh 29.41 in995.9 mb 0.00 in0.0 mm 0.00 in0.0 mm 0.00 in0.0 mm
05:25 AM 37.9°F3.3°C 33.8°F1.0°C 85% 0.7 mph SE1.1 kmh SE 3.1 mph5.0 kmh 29.41 in995.9 mb 0.00 in0.0 mm 0.00 in0.0 mm 0.00 in0.0 mm
05:30 AM 37.9°F3.3°C 33.8°F1.0°C 85% 0.2 mph SSE0.3 kmh SSE 2.2 mph3.5 kmh 29.41 in995.9 mb 0.00 in0.0 mm 0.00 in0.0 mm 0.00 in0.0 mm
05:35 AM 37.8°F3.2°C 33.8°F1.0°C 85% 0.3 mph S0.5 kmh S 2.2 mph3.5 kmh 29.41 in995.9 mb 0.00 in0.0 mm 0.00 in0.0 mm 0.00 in0.0 mm
05:40 AM 37.8°F3.2°C 33.8°F1.0°C 85% 0.4 mph SSW0.6 kmh SSW 1.6 mph2.6 kmh 29.41 in995.9 mb 0.00 in0.0 mm 0.00 in0.0 mm 0.00 in0.0 mm
05:45 AM 37.9°F3.3°C 33.8°F1.0°C 85% 0.4 mph S0.6 kmh S 1.6 mph2.6 kmh 29.41 in995.9 mb 0.00 in0.0 mm 0.00 in0.0 mm 0.00 in0.0 mm
05:50 AM 37.9°F3.3°C 33.8°F1.0°C 85% 0.3 mph SSE0.5 kmh SSE 1.3 mph2.1 kmh 29.39 in995.3 mb 0.00 in0.0 mm 0.00 in0.0 mm 0.00 in0.0 mm
05:55 AM 37.8°F3.2°C 33.8°F1.0°C 85% 0.2 mph SSE0.3 kmh SSE 1.1 mph1.8 kmh 29.39 in995.3 mb 0.00 in0.0 mm 0.00 in0.0 mm 0.00 in0.0 mm
06:00 AM 37.8°F3.2°C 33.8°F1.0°C 85% Calm Calm -- 29.39 in995.3 mb 0.00 in0.0 mm 0.00 in0.0 mm 0.00 in0.0 mm
06:05 AM 37.6°F3.1°C 33.8°F1.0°C 85% Calm Calm -- 29.39 in995.3 mb 0.00 in0.0 mm 0.00 in0.0 mm 0.00 in0.0 mm
06:10 AM 37.6°F3.1°C 33.8°F1.0°C 85% Calm Calm -- 29.39 in995.3 mb 0.00 in0.0 mm 0.00 in0.0 mm 0.00 in0.0 mm
06:15 AM 37.6°F3.1°C 33.8°F1.0°C 85% 0.1 mph E0.2 kmh E 0.9 mph1.4 kmh 29.39 in995.3 mb 0.00 in0.0 mm 0.00 in0.0 mm 0.00 in0.0 mm
06:20 AM 37.6°F3.1°C 33.8°F1.0°C 85% 0.1 mph E0.2 kmh E 0.9 mph1.4 kmh 29.39 in995.3 mb 0.00 in0.0 mm 0.00 in0.0 mm 0.00 in0.0 mm
06:25 AM 37.6°F3.1°C 33.8°F1.0°C 85% 0.5 mph E0.8 kmh E 1.6 mph2.6 kmh 29.39 in995.3 mb 0.00 in0.0 mm 0.00 in0.0 mm 0.00 in0.0 mm
06:30 AM 37.6°F3.1°C 33.8°F1.0°C 85% 1.0 mph E1.6 kmh E 2.0 mph3.2 kmh 29.39 in995.3 mb 0.00 in0.0 mm 0.00 in0.0 mm 0.00 in0.0 mm
06:35 AM 37.6°F3.1°C 33.8°F1.0°C 85% 1.1 mph E1.8 kmh E 2.0 mph3.2 kmh 29.39 in995.3 mb 0.00 in0.0 mm 0.00 in0.0 mm 0.00 in0.0 mm
06:40 AM 37.8°F3.2°C 33.8°F1.0°C 85% 0.6 mph E1.0 kmh E 2.0 mph3.2 kmh 29.39 in995.3 mb 0.00 in0.0 mm 0.00 in0.0 mm 0.00 in0.0 mm
06:45 AM 37.6°F3.1°C 33.8°F1.0°C 85% 0.2 mph ESE0.3 kmh ESE 0.9 mph1.4 kmh 29.39 in995.3 mb 0.00 in0.0 mm 0.00 in0.0 mm 0.00 in0.0 mm
06:50 AM 37.6°F3.1°C 33.8°F1.0°C 85% 0.3 mph ESE0.5 kmh ESE 1.3 mph2.1 kmh 29.39 in995.3 mb 0.00 in0.0 mm 0.00 in0.0 mm 0.00 in0.0 mm
06:55 AM 37.6°F3.1°C 33.8°F1.0°C 85% 0.3 mph ESE0.5 kmh ESE 1.3 mph2.1 kmh 29.39 in995.3 mb 0.00 in0.0 mm 0.00 in0.0 mm 0.00 in0.0 mm
07:00 AM 37.4°F3.0°C 33.8°F1.0°C 85% Calm Calm -- 29.39 in995.3 mb 0.00 in0.0 mm 0.00 in0.0 mm 0.00 in0.0 mm
07:05 AM 37.4°F3.0°C 33.8°F1.0°C 85% Calm Calm -- 29.36 in994.2 mb 0.00 in0.0 mm 0.00 in0.0 mm 0.00 in0.0 mm
07:10 AM 37.6°F3.1°C 33.8°F1.0°C 85% Calm Calm -- 29.36 in994.2 mb 0.00 in0.0 mm 0.00 in0.0 mm 0.00 in0.0 mm
07:15 AM 37.8°F3.2°C 33.8°F1.0°C 86% 0.1 mph E0.2 kmh E 0.9 mph1.4 kmh 29.36 in994.2 mb 0.00 in0.0 mm 0.00 in0.0 mm 0.00 in0.0 mm
07:20 AM 37.9°F3.3°C 33.8°F1.0°C 86% 0.6 mph ESE1.0 kmh ESE 2.0 mph3.2 kmh 29.36 in994.2 mb 0.00 in0.0 mm 0.00 in0.0 mm 0.00 in0.0 mm
07:25 AM 37.9°F3.3°C 33.8°F1.0°C 86% 1.3 mph E2.1 kmh E 2.0 mph3.2 kmh 29.36 in994.2 mb 0.00 in0.0 mm 0.00 in0.0 mm 0.00 in0.0 mm
07:30 AM 38.1°F3.4°C 33.8°F1.0°C 86% 1.0 mph E1.6 kmh E 2.0 mph3.2 kmh 29.36 in994.2 mb 0.00 in0.0 mm 0.00 in0.0 mm 0.00 in0.0 mm
07:35 AM 38.1°F3.4°C 33.8°F1.0°C 86% 0.1 mph E0.2 kmh E 1.3 mph2.1 kmh 29.36 in994.2 mb 0.00 in0.0 mm 0.00 in0.0 mm 0.00 in0.0 mm
07:40 AM 38.3°F3.5°C 35.6°F2.0°C 86% Calm Calm -- 29.36 in994.2 mb 0.00 in0.0 mm 0.00 in0.0 mm 0.00 in0.0 mm
07:45 AM 38.5°F3.6°C 35.6°F2.0°C 86% 0.2 mph E0.3 kmh E 1.1 mph1.8 kmh 29.36 in994.2 mb 0.00 in0.0 mm 0.00 in0.0 mm 0.00 in0.0 mm
07:50 AM 38.5°F3.6°C 35.6°F2.0°C 86% 0.2 mph E0.3 kmh E 1.1 mph1.8 kmh 29.36 in994.2 mb 0.00 in0.0 mm 0.00 in0.0 mm 0.00 in0.0 mm
07:55 AM 38.3°F3.5°C 35.6°F2.0°C 86% 0.1 mph E0.2 kmh E 0.9 mph1.4 kmh 29.36 in994.2 mb 0.00 in0.0 mm 0.00 in0.0 mm 0.00 in0.0 mm
08:00 AM 38.5°F3.6°C 35.6°F2.0°C 86% 0.1 mph E0.2 kmh E 0.9 mph1.4 kmh 29.36 in994.2 mb 0.00 in0.0 mm 0.00 in0.0 mm 0.00 in0.0 mm
08:05 AM 38.5°F3.6°C 35.6°F2.0°C 86% Calm Calm -- 29.36 in994.2 mb 0.00 in0.0 mm 0.00 in0.0 mm 0.00 in0.0 mm
08:10 AM 38.5°F3.6°C 35.6°F2.0°C 86% Calm Calm -- 29.36 in994.2 mb 0.00 in0.0 mm 0.00 in0.0 mm 0.00 in0.0 mm
08:15 AM 38.5°F3.6°C 35.6°F2.0°C 86% Calm Calm -- 29.36 in994.2 mb 0.00 in0.0 mm 0.00 in0.0 mm 0.00 in0.0 mm
08:20 AM 38.7°F3.7°C 35.6°F2.0°C 86% Calm Calm -- 29.36 in994.2 mb 0.00 in0.0 mm 0.00 in0.0 mm 0.00 in0.0 mm
08:25 AM 38.7°F3.7°C 35.6°F2.0°C 86% Calm Calm -- 29.36 in994.2 mb 0.00 in0.0 mm 0.00 in0.0 mm 0.00 in0.0 mm
08:30 AM 38.8°F3.8°C 35.6°F2.0°C 87% Calm Calm -- 29.36 in994.2 mb 0.00 in0.0 mm 0.00 in0.0 mm 0.00 in0.0 mm
08:35 AM 38.8°F3.8°C 35.6°F2.0°C 87% Calm Calm -- 29.36 in994.2 mb 0.00 in0.0 mm 0.00 in0.0 mm 0.00 in0.0 mm
08:40 AM 39.0°F3.9°C 35.6°F2.0°C 87% Calm Calm -- 29.36 in994.2 mb 0.00 in0.0 mm 0.00 in0.0 mm 0.00 in0.0 mm
08:45 AM 39.4°F4.1°C 35.6°F2.0°C 87% Calm Calm -- 29.36 in994.2 mb 0.00 in0.0 mm 0.00 in0.0 mm 0.00 in0.0 mm
08:55 AM 39.6°F4.2°C 37.4°F3.0°C 87% Calm Calm -- 29.36 in994.2 mb 0.00 in0.0 mm 0.00 in0.0 mm 0.00 in0.0 mm
09:00 AM 39.7°F4.3°C 37.4°F3.0°C 87% Calm Calm -- 29.36 in994.2 mb 0.00 in0.0 mm 0.00 in0.0 mm 0.00 in0.0 mm
09:05 AM 39.7°F4.3°C 37.4°F3.0°C 87% Calm Calm -- 29.36 in994.2 mb 0.00 in0.0 mm 0.00 in0.0 mm 0.00 in0.0 mm
09:10 AM 39.9°F4.4°C 37.4°F3.0°C 87% Calm Calm -- 29.36 in994.2 mb 0.00 in0.0 mm 0.00 in0.0 mm 0.00 in0.0 mm
09:15 AM 39.9°F4.4°C 37.4°F3.0°C 87% Calm Calm -- 29.36 in994.2 mb 0.00 in0.0 mm 0.00 in0.0 mm 0.00 in0.0 mm
09:20 AM 39.9°F4.4°C 37.4°F3.0°C 87% Calm Calm -- 29.33 in993.2 mb 0.00 in0.0 mm 0.00 in0.0 mm 0.00 in0.0 mm
09:25 AM 39.9°F4.4°C 37.4°F3.0°C 87% 0.2 mph NE0.3 kmh NE 1.1 mph1.8 kmh 29.33 in993.2 mb 0.00 in0.0 mm 0.00 in0.0 mm 0.00 in0.0 mm
09:30 AM 40.1°F4.5°C 37.4°F3.0°C 87% 0.6 mph ENE1.0 kmh ENE 1.6 mph2.6 kmh 29.33 in993.2 mb 0.00 in0.0 mm 0.00 in0.0 mm 0.00 in0.0 mm
09:35 AM 40.1°F4.5°C 37.4°F3.0°C 87% 1.3 mph ENE2.1 kmh ENE 2.5 mph4.0 kmh 29.33 in993.2 mb 0.00 in0.0 mm 0.00 in0.0 mm 0.00 in0.0 mm
09:40 AM 40.3°F4.6°C 37.4°F3.0°C 87% 1.3 mph ENE2.1 kmh ENE 2.5 mph4.0 kmh 29.33 in993.2 mb 0.00 in0.0 mm 0.00 in0.0 mm 0.00 in0.0 mm
09:45 AM 40.3°F4.6°C 37.4°F3.0°C 87% 0.6 mph NE1.0 kmh NE 1.1 mph1.8 kmh 29.33 in993.2 mb 0.00 in0.0 mm 0.00 in0.0 mm 0.00 in0.0 mm
09:50 AM 40.5°F4.7°C 37.4°F3.0°C 88% 0.6 mph NE1.0 kmh NE 1.1 mph1.8 kmh 29.33 in993.2 mb 0.00 in0.0 mm 0.00 in0.0 mm 0.00 in0.0 mm
09:55 AM 40.5°F4.7°C 37.4°F3.0°C 88% 0.8 mph NE1.3 kmh NE 1.1 mph1.8 kmh 29.33 in993.2 mb 0.00 in0.0 mm 0.00 in0.0 mm 0.00 in0.0 mm
10:00 AM 40.6°F4.8°C 37.4°F3.0°C 88% 1.0 mph NE1.6 kmh NE 1.3 mph2.1 kmh 29.33 in993.2 mb 0.00 in0.0 mm 0.00 in0.0 mm 0.00 in0.0 mm
10:05 AM 40.6°F4.8°C 37.4°F3.0°C 88% 1.0 mph ENE1.6 kmh ENE 1.3 mph2.1 kmh 29.33 in993.2 mb 0.00 in0.0 mm 0.00 in0.0 mm 0.00 in0.0 mm
10:10 AM 40.8°F4.9°C 37.4°F3.0°C 88% 1.0 mph ENE1.6 kmh ENE 1.6 mph2.6 kmh 29.33 in993.2 mb 0.00 in0.0 mm 0.00 in0.0 mm 0.00 in0.0 mm
10:15 AM 41.0°F5.0°C 37.4°F3.0°C 88% 1.0 mph E1.6 kmh E 2.0 mph3.2 kmh 29.33 in993.2 mb 0.00 in0.0 mm 0.00 in0.0 mm 0.00 in0.0 mm
10:20 AM 41.2°F5.1°C 37.4°F3.0°C 88% 1.2 mph E1.9 kmh E 2.2 mph3.5 kmh 29.33 in993.2 mb 0.00 in0.0 mm 0.00 in0.0 mm 0.00 in0.0 mm
10:25 AM 41.5°F5.3°C 39.2°F4.0°C 88% 2.1 mph E3.4 kmh E 3.4 mph5.5 kmh 29.33 in993.2 mb 0.13 in3.3 mm 1.56 in39.6 mm 0.13 in3.3 mm
10:30 AM 41.9°F5.5°C 39.2°F4.0°C 88% 2.9 mph E4.7 kmh E 3.4 mph5.5 kmh 29.33 in993.2 mb 0.13 in3.3 mm 0.00 in0.0 mm 0.13 in3.3 mm
10:35 AM 42.1°F5.6°C 39.2°F4.0°C 88% 3.2 mph E5.1 kmh E 4.9 mph7.9 kmh 29.33 in993.2 mb 0.13 in3.3 mm 0.00 in0.0 mm 0.13 in3.3 mm
10:40 AM 42.3°F5.7°C 39.2°F4.0°C 88% 3.2 mph E5.1 kmh E 4.9 mph7.9 kmh 29.33 in993.2 mb 0.13 in3.3 mm 0.00 in0.0 mm 0.13 in3.3 mm
10:45 AM 42.4°F5.8°C 39.2°F4.0°C 88% 3.1 mph E5.0 kmh E 5.4 mph8.7 kmh 29.33 in993.2 mb 0.13 in3.3 mm 0.00 in0.0 mm 0.13 in3.3 mm
10:50 AM 42.4°F5.8°C 39.2°F4.0°C 88% 3.1 mph E5.0 kmh E 5.4 mph8.7 kmh 29.30 in992.2 mb 0.13 in3.3 mm 0.00 in0.0 mm 0.13 in3.3 mm
10:55 AM 42.6°F5.9°C 41.0°F5.0°C 89% 3.9 mph E6.3 kmh E 7.4 mph11.9 kmh 29.30 in992.2 mb 0.13 in3.3 mm 0.00 in0.0 mm 0.13 in3.3 mm
11:00 AM 42.8°F6.0°C 41.0°F5.0°C 89% 4.5 mph E7.2 kmh E 7.4 mph11.9 kmh 29.30 in992.2 mb 0.24 in6.1 mm 0.12 in3.0 mm 0.24 in6.1 mm
11:05 AM 42.8°F6.0°C 41.0°F5.0°C 89% 3.8 mph E6.1 kmh E 6.0 mph9.7 kmh 29.30 in992.2 mb 0.24 in6.1 mm 0.00 in0.0 mm 0.24 in6.1 mm
11:10 AM 43.0°F6.1°C 41.0°F5.0°C 89% 3.7 mph E6.0 kmh E 6.0 mph9.7 kmh 29.30 in992.2 mb 0.24 in6.1 mm 0.00 in0.0 mm 0.24 in6.1 mm
11:15 AM 43.2°F6.2°C 41.0°F5.0°C 89% 3.7 mph E6.0 kmh E 4.9 mph7.9 kmh 29.30 in992.2 mb 0.24 in6.1 mm 0.00 in0.0 mm 0.24 in6.1 mm
11:20 AM 43.2°F6.2°C 41.0°F5.0°C 89% 3.5 mph E5.6 kmh E 4.9 mph7.9 kmh 29.30 in992.2 mb 0.11 in2.8 mm 0.00 in0.0 mm 0.24 in6.1 mm
11:25 AM 43.2°F6.2°C 41.0°F5.0°C 89% 3.8 mph ESE6.1 kmh ESE 7.2 mph11.6 kmh 29.30 in992.2 mb 0.23 in5.8 mm 1.44 in36.6 mm 0.35 in8.9 mm
11:30 AM 43.3°F6.3°C 41.0°F5.0°C 89% 3.7 mph ESE6.0 kmh ESE 7.2 mph11.6 kmh 29.30 in992.2 mb 0.23 in5.8 mm 0.00 in0.0 mm 0.35 in8.9 mm
11:35 AM 43.5°F6.4°C 41.0°F5.0°C 88% 4.3 mph E6.9 kmh E 6.5 mph10.5 kmh 29.27 in991.2 mb 0.23 in5.8 mm 0.00 in0.0 mm 0.35 in8.9 mm
11:40 AM 43.5°F6.4°C 41.0°F5.0°C 88% 3.7 mph ESE6.0 kmh ESE 6.5 mph10.5 kmh 29.27 in991.2 mb 0.23 in5.8 mm 0.00 in0.0 mm 0.35 in8.9 mm
11:45 AM 43.7°F6.5°C 41.0°F5.0°C 88% 3.1 mph E5.0 kmh E 6.3 mph10.1 kmh 29.27 in991.2 mb 0.23 in5.8 mm 0.00 in0.0 mm 0.35 in8.9 mm
11:50 AM 43.7°F6.5°C 41.0°F5.0°C 88% 3.8 mph E6.1 kmh E 6.5 mph10.5 kmh 29.27 in991.2 mb 0.23 in5.8 mm 0.00 in0.0 mm 0.35 in8.9 mm
11:55 AM 43.9°F6.6°C 41.0°F5.0°C 88% 4.1 mph E6.6 kmh E 6.5 mph10.5 kmh 29.27 in991.2 mb 0.23 in5.8 mm 0.00 in0.0 mm 0.35 in8.9 mm
12:00 PM 44.1°F6.7°C 41.0°F5.0°C 88% 3.7 mph E6.0 kmh E 6.0 mph9.7 kmh 29.27 in991.2 mb 0.11 in2.8 mm 0.00 in0.0 mm 0.35 in8.9 mm
12:05 PM 44.1°F6.7°C 41.0°F5.0°C 88% 3.3 mph E5.3 kmh E 5.8 mph9.3 kmh 29.24 in990.2 mb 0.11 in2.8 mm 0.00 in0.0 mm 0.35 in8.9 mm
12:10 PM 44.2°F6.8°C 41.0°F5.0°C 88% 2.8 mph E4.5 kmh E 5.8 mph9.3 kmh 29.24 in990.2 mb 0.11 in2.8 mm 0.00 in0.0 mm 0.35 in8.9 mm
12:15 PM 44.2°F6.8°C 41.0°F5.0°C 88% 2.4 mph SE3.9 kmh SE 6.0 mph9.7 kmh 29.24 in990.2 mb 0.23 in5.8 mm 1.44 in36.6 mm 0.46 in11.7 mm
12:20 PM 44.4°F6.9°C 41.0°F5.0°C 88% 2.8 mph SE4.5 kmh SE 6.0 mph9.7 kmh 29.24 in990.2 mb 0.23 in5.8 mm 0.00 in0.0 mm 0.46 in11.7 mm
12:25 PM 44.4°F6.9°C 41.0°F5.0°C 88% 3.8 mph E6.1 kmh E 6.9 mph11.1 kmh 29.24 in990.2 mb 0.11 in2.8 mm 0.00 in0.0 mm 0.46 in11.7 mm
12:30 PM 44.4°F6.9°C 42.8°F6.0°C 89% 5.0 mph ESE8.0 kmh ESE 7.8 mph12.6 kmh 29.24 in990.2 mb 0.11 in2.8 mm 0.00 in0.0 mm 0.46 in11.7 mm
12:35 PM 44.4°F6.9°C 42.8°F6.0°C 89% 4.1 mph ESE6.6 kmh ESE 7.8 mph12.6 kmh 29.21 in989.2 mb 0.11 in2.8 mm 0.00 in0.0 mm 0.46 in11.7 mm
12:40 PM 44.6°F7.0°C 42.8°F6.0°C 89% 4.8 mph E7.7 kmh E 9.6 mph15.4 kmh 29.21 in989.2 mb 0.11 in2.8 mm 0.00 in0.0 mm 0.46 in11.7 mm
12:45 PM 44.6°F7.0°C 42.8°F6.0°C 89% 5.6 mph E9.0 kmh E 9.6 mph15.4 kmh 29.21 in989.2 mb 0.11 in2.8 mm 0.00 in0.0 mm 0.46 in11.7 mm
12:50 PM 44.6°F7.0°C 42.8°F6.0°C 89% 4.9 mph E7.9 kmh E 8.5 mph13.7 kmh 29.21 in989.2 mb 0.11 in2.8 mm 0.00 in0.0 mm 0.46 in11.7 mm
12:55 PM 44.6°F7.0°C 42.8°F6.0°C 89% 3.8 mph ESE6.1 kmh ESE 5.4 mph8.7 kmh 29.21 in989.2 mb 0.11 in2.8 mm 0.00 in0.0 mm 0.46 in11.7 mm
01:00 PM 44.6°F7.0°C 42.8°F6.0°C 89% 4.2 mph ESE6.8 kmh ESE 11.0 mph17.7 kmh 29.21 in989.2 mb 0.11 in2.8 mm 0.00 in0.0 mm 0.46 in11.7 mm
01:05 PM 44.6°F7.0°C 42.8°F6.0°C 89% 4.2 mph E6.8 kmh E 11.0 mph17.7 kmh 29.21 in989.2 mb 0.24 in6.1 mm 1.56 in39.6 mm 0.59 in15.0 mm
01:10 PM 44.8°F7.1°C 42.8°F6.0°C 89% 4.0 mph E6.4 kmh E 8.7 mph14.0 kmh 29.21 in989.2 mb 0.24 in6.1 mm 0.00 in0.0 mm 0.59 in15.0 mm
01:15 PM 44.6°F7.0°C 42.8°F6.0°C 89% 4.3 mph E6.9 kmh E 8.7 mph14.0 kmh 29.21 in989.2 mb 0.13 in3.3 mm 0.00 in0.0 mm 0.59 in15.0 mm
01:20 PM 44.8°F7.1°C 42.8°F6.0°C 89% 4.8 mph E7.7 kmh E 9.8 mph15.8 kmh 29.18 in988.1 mb 0.13 in3.3 mm 0.00 in0.0 mm 0.59 in15.0 mm
01:25 PM 44.8°F7.1°C 42.8°F6.0°C 89% 5.1 mph ESE8.2 kmh ESE 9.8 mph15.8 kmh 29.18 in988.1 mb 0.13 in3.3 mm 0.00 in0.0 mm 0.59 in15.0 mm
01:30 PM 45.0°F7.2°C 42.8°F6.0°C 89% 4.0 mph SE6.4 kmh SE 7.8 mph12.6 kmh 29.18 in988.1 mb 0.13 in3.3 mm 0.00 in0.0 mm 0.59 in15.0 mm
01:35 PM 45.0°F7.2°C 42.8°F6.0°C 89% 4.4 mph ESE7.1 kmh ESE 6.7 mph10.8 kmh 29.18 in988.1 mb 0.13 in3.3 mm 0.00 in0.0 mm 0.59 in15.0 mm
01:40 PM 45.1°F7.3°C 42.8°F6.0°C 89% 4.5 mph ESE7.2 kmh ESE 7.8 mph12.6 kmh 29.18 in988.1 mb 0.13 in3.3 mm 0.00 in0.0 mm 0.59 in15.0 mm
01:45 PM 45.1°F7.3°C 42.8°F6.0°C 89% 4.3 mph ESE6.9 kmh ESE 7.8 mph12.6 kmh 29.18 in988.1 mb 0.13 in3.3 mm 0.00 in0.0 mm 0.59 in15.0 mm
01:50 PM 45.1°F7.3°C 42.8°F6.0°C 89% 3.3 mph E5.3 kmh E 6.9 mph11.1 kmh 29.18 in988.1 mb 0.13 in3.3 mm 0.00 in0.0 mm 0.59 in15.0 mm
01:55 PM 45.1°F7.3°C 42.8°F6.0°C 89% 3.5 mph E5.6 kmh E 6.5 mph10.5 kmh 29.18 in988.1 mb 0.13 in3.3 mm 0.00 in0.0 mm 0.59 in15.0 mm
02:00 PM 45.3°F7.4°C 42.8°F6.0°C 89% 3.1 mph E5.0 kmh E 6.5 mph10.5 kmh 29.18 in988.1 mb 0.13 in3.3 mm 0.00 in0.0 mm 0.59 in15.0 mm
02:05 PM 45.3°F7.4°C 42.8°F6.0°C 89% 2.7 mph ESE4.3 kmh ESE 6.0 mph9.7 kmh 29.15 in987.1 mb 0.00 in0.0 mm 0.00 in0.0 mm 0.59 in15.0 mm
02:10 PM 45.3°F7.4°C 42.8°F6.0°C 89% 2.8 mph SE4.5 kmh SE 6.0 mph9.7 kmh 29.15 in987.1 mb 0.00 in0.0 mm 0.00 in0.0 mm 0.59 in15.0 mm
02:15 PM 45.5°F7.5°C 42.8°F6.0°C 90% 2.7 mph SE4.3 kmh SE 6.5 mph10.5 kmh 29.15 in987.1 mb 0.00 in0.0 mm 0.00 in0.0 mm 0.59 in15.0 mm
02:20 PM 45.5°F7.5°C 42.8°F6.0°C 90% 4.3 mph SE6.9 kmh SE 8.7 mph14.0 kmh 29.15 in987.1 mb 0.00 in0.0 mm 0.00 in0.0 mm 0.59 in15.0 mm
02:25 PM 45.7°F7.6°C 42.8°F6.0°C 90% 3.9 mph ESE6.3 kmh ESE 8.7 mph14.0 kmh 29.15 in987.1 mb 0.00 in0.0 mm 0.00 in0.0 mm 0.59 in15.0 mm
02:30 PM 45.7°F7.6°C 42.8°F6.0°C 90% 2.4 mph E3.9 kmh E 5.4 mph8.7 kmh 29.15 in987.1 mb 0.00 in0.0 mm 0.00 in0.0 mm 0.59 in15.0 mm
02:35 PM 45.7°F7.6°C 42.8°F6.0°C 90% 1.9 mph SE3.1 kmh SE 3.8 mph6.1 kmh 29.15 in987.1 mb 0.00 in0.0 mm 0.00 in0.0 mm 0.59 in15.0 mm
02:40 PM 45.9°F7.7°C 42.8°F6.0°C 90% 2.2 mph SE3.5 kmh SE 3.1 mph5.0 kmh 29.15 in987.1 mb 0.00 in0.0 mm 0.00 in0.0 mm 0.59 in15.0 mm
02:45 PM 45.9°F7.7°C 42.8°F6.0°C 90% 2.2 mph ESE3.5 kmh ESE 2.7 mph4.3 kmh 29.15 in987.1 mb 0.00 in0.0 mm 0.00 in0.0 mm 0.59 in15.0 mm
02:50 PM 45.9°F7.7°C 42.8°F6.0°C 90% 2.8 mph SE4.5 kmh SE 4.9 mph7.9 kmh 29.12 in986.1 mb 0.00 in0.0 mm 0.00 in0.0 mm 0.59 in15.0 mm
02:55 PM 45.9°F7.7°C 42.8°F6.0°C 90% 2.1 mph ESE3.4 kmh ESE 4.9 mph7.9 kmh 29.12 in986.1 mb 0.00 in0.0 mm 0.00 in0.0 mm 0.59 in15.0 mm
03:00 PM 46.0°F7.8°C 42.8°F6.0°C 90% 1.8 mph E2.9 kmh E 2.7 mph4.3 kmh 29.12 in986.1 mb 0.00 in0.0 mm 0.00 in0.0 mm 0.59 in15.0 mm
03:05 PM 46.0°F7.8°C 42.8°F6.0°C 90% 2.1 mph E3.4 kmh E 2.7 mph4.3 kmh 29.12 in986.1 mb 0.00 in0.0 mm 0.00 in0.0 mm 0.59 in15.0 mm
03:10 PM 46.0°F7.8°C 42.8°F6.0°C 90% 1.4 mph E2.3 kmh E 2.7 mph4.3 kmh 29.12 in986.1 mb 0.00 in0.0 mm 0.00 in0.0 mm 0.59 in15.0 mm
03:15 PM 46.0°F7.8°C 42.8°F6.0°C 90% 1.7 mph SE2.7 kmh SE 3.8 mph6.1 kmh 29.12 in986.1 mb 0.00 in0.0 mm 0.00 in0.0 mm 0.59 in15.0 mm
03:20 PM 46.2°F7.9°C 42.8°F6.0°C 90% 1.4 mph ESE2.3 kmh ESE 3.8 mph6.1 kmh 29.12 in986.1 mb 0.00 in0.0 mm 0.00 in0.0 mm 0.59 in15.0 mm
03:25 PM 46.2°F7.9°C 42.8°F6.0°C 90% 1.2 mph E1.9 kmh E 2.9 mph4.7 kmh 29.12 in986.1 mb 0.00 in0.0 mm 0.00 in0.0 mm 0.59 in15.0 mm
03:30 PM 46.2°F7.9°C 42.8°F6.0°C 90% 1.3 mph E2.1 kmh E 2.9 mph4.7 kmh 29.12 in986.1 mb 0.00 in0.0 mm 0.00 in0.0 mm 0.59 in15.0 mm
03:35 PM 46.2°F7.9°C 42.8°F6.0°C 90% 1.8 mph E2.9 kmh E 2.9 mph4.7 kmh 29.12 in986.1 mb 0.00 in0.0 mm 0.00 in0.0 mm 0.59 in15.0 mm
03:40 PM 46.2°F7.9°C 42.8°F6.0°C 90% 1.7 mph SSE2.7 kmh SSE 2.5 mph4.0 kmh 29.12 in986.1 mb 0.00 in0.0 mm 0.00 in0.0 mm 0.59 in15.0 mm
03:45 PM 46.2°F7.9°C 42.8°F6.0°C 90% 1.6 mph SSE2.6 kmh SSE 2.5 mph4.0 kmh 29.12 in986.1 mb 0.00 in0.0 mm 0.00 in0.0 mm 0.59 in15.0 mm
03:50 PM 46.2°F7.9°C 42.8°F6.0°C 90% 0.7 mph ESE1.1 kmh ESE 1.6 mph2.6 kmh 29.12 in986.1 mb 0.00 in0.0 mm 0.00 in0.0 mm 0.59 in15.0 mm
03:55 PM 46.2°F7.9°C 42.8°F6.0°C 90% 0.2 mph ESE0.3 kmh ESE 0.9 mph1.4 kmh 29.12 in986.1 mb 0.00 in0.0 mm 0.00 in0.0 mm 0.59 in15.0 mm
04:00 PM 46.2°F7.9°C 42.8°F6.0°C 90% Calm Calm -- 29.12 in986.1 mb 0.00 in0.0 mm 0.00 in0.0 mm 0.59 in15.0 mm
04:05 PM 46.4°F8.0°C 44.6°F7.0°C 90% Calm Calm -- 29.12 in986.1 mb 0.00 in0.0 mm 0.00 in0.0 mm 0.59 in15.0 mm
04:10 PM 46.4°F8.0°C 44.6°F7.0°C 90% Calm Calm -- 29.12 in986.1 mb 0.00 in0.0 mm 0.00 in0.0 mm 0.59 in15.0 mm
04:15 PM 46.4°F8.0°C 44.6°F7.0°C 90% 0.6 mph ESE1.0 kmh ESE 2.2 mph3.5 kmh 29.12 in986.1 mb 0.00 in0.0 mm 0.00 in0.0 mm 0.59 in15.0 mm
04:20 PM 46.4°F8.0°C 44.6°F7.0°C 91% 0.6 mph ESE1.0 kmh ESE 2.2 mph3.5 kmh 29.12 in986.1 mb 0.00 in0.0 mm 0.00 in0.0 mm 0.59 in15.0 mm
04:25 PM 46.4°F8.0°C 44.6°F7.0°C 91% Calm Calm -- 29.12 in986.1 mb 0.00 in0.0 mm 0.00 in0.0 mm 0.59 in15.0 mm
04:30 PM 46.4°F8.0°C 44.6°F7.0°C 91% Calm Calm -- 29.12 in986.1 mb 0.00 in0.0 mm 0.00 in0.0 mm 0.59 in15.0 mm
04:35 PM 46.6°F8.1°C 44.6°F7.0°C 91% Calm Calm -- 29.09 in985.1 mb 0.00 in0.0 mm 0.00 in0.0 mm 0.59 in15.0 mm
04:40 PM 46.8°F8.2°C 44.6°F7.0°C 91% Calm Calm -- 29.09 in985.1 mb 0.00 in0.0 mm 0.00 in0.0 mm 0.59 in15.0 mm
04:45 PM 46.8°F8.2°C 44.6°F7.0°C 91% Calm Calm -- 29.09 in985.1 mb 0.00 in0.0 mm 0.00 in0.0 mm 0.59 in15.0 mm
04:50 PM 46.8°F8.2°C 44.6°F7.0°C 91% Calm Calm -- 29.09 in985.1 mb 0.00 in0.0 mm 0.00 in0.0 mm 0.59 in15.0 mm
04:55 PM 46.8°F8.2°C 44.6°F7.0°C 91% Calm Calm -- 29.09 in985.1 mb 0.00 in0.0 mm 0.00 in0.0 mm 0.59 in15.0 mm
05:00 PM 46.9°F8.3°C 44.6°F7.0°C 91% Calm Calm -- 29.09 in985.1 mb 0.00 in0.0 mm 0.00 in0.0 mm 0.59 in15.0 mm
05:05 PM 47.1°F8.4°C 44.6°F7.0°C 91% Calm Calm -- 29.09 in985.1 mb 0.00 in0.0 mm 0.00 in0.0 mm 0.59 in15.0 mm
05:10 PM 47.1°F8.4°C 44.6°F7.0°C 91% Calm Calm -- 29.09 in985.1 mb 0.00 in0.0 mm 0.00 in0.0 mm 0.59 in15.0 mm
05:15 PM 47.1°F8.4°C 44.6°F7.0°C 91% Calm Calm -- 29.09 in985.1 mb 0.00 in0.0 mm 0.00 in0.0 mm 0.59 in15.0 mm
05:20 PM 47.1°F8.4°C 44.6°F7.0°C 91% Calm Calm -- 29.09 in985.1 mb 0.00 in0.0 mm 0.00 in0.0 mm 0.59 in15.0 mm
05:25 PM 47.1°F8.4°C 44.6°F7.0°C 91% Calm Calm -- 29.09 in985.1 mb 0.00 in0.0 mm 0.00 in0.0 mm 0.59 in15.0 mm
05:30 PM 47.3°F8.5°C 46.4°F8.0°C 91% Calm Calm -- 29.09 in985.1 mb 0.00 in0.0 mm 0.00 in0.0 mm 0.59 in15.0 mm
05:35 PM 47.3°F8.5°C 46.4°F8.0°C 91% Calm Calm -- 29.09 in985.1 mb 0.00 in0.0 mm 0.00 in0.0 mm 0.59 in15.0 mm
05:40 PM 47.5°F8.6°C 46.4°F8.0°C 92% Calm Calm -- 29.09 in985.1 mb 0.00 in0.0 mm 0.00 in0.0 mm 0.59 in15.0 mm
05:45 PM 47.5°F8.6°C 46.4°F8.0°C 92% 0.1 mph SSE0.2 kmh SSE 1.6 mph2.6 kmh 29.09 in985.1 mb 0.00 in0.0 mm 0.00 in0.0 mm 0.59 in15.0 mm
05:50 PM 47.7°F8.7°C 46.4°F8.0°C 92% 1.0 mph SSE1.6 kmh SSE 2.5 mph4.0 kmh 29.09 in985.1 mb 0.00 in0.0 mm 0.00 in0.0 mm 0.59 in15.0 mm
05:55 PM 47.7°F8.7°C 46.4°F8.0°C 92% 1.3 mph SSE2.1 kmh SSE 2.5 mph4.0 kmh 29.09 in985.1 mb 0.00 in0.0 mm 0.00 in0.0 mm 0.59 in15.0 mm
06:00 PM 47.7°F8.7°C 46.4°F8.0°C 92% 1.0 mph SSE1.6 kmh SSE 2.0 mph3.2 kmh 29.09 in985.1 mb 0.00 in0.0 mm 0.00 in0.0 mm 0.59 in15.0 mm
06:05 PM 47.8°F8.8°C 46.4°F8.0°C 92% 0.8 mph S1.3 kmh S 2.0 mph3.2 kmh 29.09 in985.1 mb 0.00 in0.0 mm 0.00 in0.0 mm 0.59 in15.0 mm
06:10 PM 47.8°F8.8°C 46.4°F8.0°C 92% 1.2 mph S1.9 kmh S 2.7 mph4.3 kmh 29.09 in985.1 mb 0.00 in0.0 mm 0.00 in0.0 mm 0.59 in15.0 mm
06:15 PM 48.0°F8.9°C 46.4°F8.0°C 92% 1.3 mph S2.1 kmh S 2.7 mph4.3 kmh 29.09 in985.1 mb 0.00 in0.0 mm 0.00 in0.0 mm 0.59 in15.0 mm
06:20 PM 48.0°F8.9°C 46.4°F8.0°C 92% 1.0 mph SSW1.6 kmh SSW 1.3 mph2.1 kmh 29.09 in985.1 mb 0.00 in0.0 mm 0.00 in0.0 mm 0.59 in15.0 mm
06:25 PM 48.0°F8.9°C 46.4°F8.0°C 92% 1.5 mph S2.4 kmh S 2.7 mph4.3 kmh 29.09 in985.1 mb 0.00 in0.0 mm 0.00 in0.0 mm 0.59 in15.0 mm
06:30 PM 48.2°F9.0°C 46.4°F8.0°C 92% 2.1 mph SSW3.4 kmh SSW 2.7 mph4.3 kmh 29.09 in985.1 mb 0.00 in0.0 mm 0.00 in0.0 mm 0.59 in15.0 mm
06:35 PM 48.0°F8.9°C 46.4°F8.0°C 92% 2.6 mph SSW4.2 kmh SSW 2.7 mph4.3 kmh 29.09 in985.1 mb 0.00 in0.0 mm 0.00 in0.0 mm 0.59 in15.0 mm
06:40 PM 48.0°F8.9°C 46.4°F8.0°C 92% 1.7 mph SSW2.7 kmh SSW 2.7 mph4.3 kmh 29.09 in985.1 mb 0.00 in0.0 mm 0.00 in0.0 mm 0.59 in15.0 mm
06:45 PM 48.0°F8.9°C 46.4°F8.0°C 92% 1.3 mph S2.1 kmh S 2.5 mph4.0 kmh 29.09 in985.1 mb 0.00 in0.0 mm 0.00 in0.0 mm 0.59 in15.0 mm
06:50 PM 48.0°F8.9°C 46.4°F8.0°C 92% 1.2 mph SSW1.9 kmh SSW 1.6 mph2.6 kmh 29.09 in985.1 mb 0.00 in0.0 mm 0.00 in0.0 mm 0.59 in15.0 mm
06:55 PM 48.2°F9.0°C 46.4°F8.0°C 92% 1.1 mph S1.8 kmh S 2.7 mph4.3 kmh 29.09 in985.1 mb 0.00 in0.0 mm 0.00 in0.0 mm 0.59 in15.0 mm
07:00 PM 48.2°F9.0°C 46.4°F8.0°C 92% 1.1 mph S1.8 kmh S 2.7 mph4.3 kmh 29.09 in985.1 mb 0.00 in0.0 mm 0.00 in0.0 mm 0.59 in15.0 mm
07:05 PM 48.2°F9.0°C 46.4°F8.0°C 92% 1.3 mph SSW2.1 kmh SSW 1.6 mph2.6 kmh 29.09 in985.1 mb 0.00 in0.0 mm 0.00 in0.0 mm 0.59 in15.0 mm
07:10 PM 48.2°F9.0°C 46.4°F8.0°C 92% 1.5 mph SSW2.4 kmh SSW 1.6 mph2.6 kmh 29.09 in985.1 mb 0.00 in0.0 mm 0.00 in0.0 mm 0.59 in15.0 mm
07:15 PM 48.2°F9.0°C 46.4°F8.0°C 92% 1.9 mph SSW3.1 kmh SSW 3.1 mph5.0 kmh 29.09 in985.1 mb 0.00 in0.0 mm 0.00 in0.0 mm 0.59 in15.0 mm
07:20 PM 48.2°F9.0°C 46.4°F8.0°C 92% 1.5 mph SW2.4 kmh SW 3.1 mph5.0 kmh 29.09 in985.1 mb 0.00 in0.0 mm 0.00 in0.0 mm 0.59 in15.0 mm
07:25 PM 48.2°F9.0°C 46.4°F8.0°C 92% 1.0 mph SW1.6 kmh SW 3.1 mph5.0 kmh 29.09 in985.1 mb 0.00 in0.0 mm 0.00 in0.0 mm 0.59 in15.0 mm
07:30 PM 48.2°F9.0°C 46.4°F8.0°C 92% 1.0 mph SW1.6 kmh SW 1.6 mph2.6 kmh 29.09 in985.1 mb 0.00 in0.0 mm 0.00 in0.0 mm 0.59 in15.0 mm
07:35 PM 48.2°F9.0°C 46.4°F8.0°C 92% 0.6 mph SW1.0 kmh SW 1.6 mph2.6 kmh 29.09 in985.1 mb 0.00 in0.0 mm 0.00 in0.0 mm 0.59 in15.0 mm
07:40 PM 48.2°F9.0°C 46.4°F8.0°C 92% 0.5 mph S0.8 kmh S 1.6 mph2.6 kmh 29.09 in985.1 mb 0.00 in0.0 mm 0.00 in0.0 mm 0.59 in15.0 mm
07:45 PM 48.2°F9.0°C 46.4°F8.0°C 92% 0.8 mph SSW1.3 kmh SSW 1.6 mph2.6 kmh 29.09 in985.1 mb 0.00 in0.0 mm 0.00 in0.0 mm 0.59 in15.0 mm
07:50 PM 48.2°F9.0°C 46.4°F8.0°C 92% 0.6 mph SW1.0 kmh SW 2.0 mph3.2 kmh 29.09 in985.1 mb 0.00 in0.0 mm 0.00 in0.0 mm 0.59 in15.0 mm
07:55 PM 48.2°F9.0°C 46.4°F8.0°C 92% 1.2 mph SSW1.9 kmh SSW 2.2 mph3.5 kmh 29.09 in985.1 mb 0.00 in0.0 mm 0.00 in0.0 mm 0.59 in15.0 mm
08:00 PM 48.2°F9.0°C 46.4°F8.0°C 92% 1.4 mph SSW2.3 kmh SSW 2.2 mph3.5 kmh 29.09 in985.1 mb 0.00 in0.0 mm 0.00 in0.0 mm 0.59 in15.0 mm
08:05 PM 48.2°F9.0°C 46.4°F8.0°C 92% 1.1 mph SSW1.8 kmh SSW 2.0 mph3.2 kmh 29.09 in985.1 mb 0.00 in0.0 mm 0.00 in0.0 mm 0.59 in15.0 mm
08:10 PM 48.2°F9.0°C 46.4°F8.0°C 92% 1.5 mph SSW2.4 kmh SSW 3.4 mph5.5 kmh 29.09 in985.1 mb 0.00 in0.0 mm 0.00 in0.0 mm 0.59 in15.0 mm
08:15 PM 48.2°F9.0°C 46.4°F8.0°C 92% 1.4 mph SSW2.3 kmh SSW 3.4 mph5.5 kmh 29.09 in985.1 mb 0.00 in0.0 mm 0.00 in0.0 mm 0.59 in15.0 mm
08:20 PM 48.4°F9.1°C 46.4°F8.0°C 92% 1.2 mph SSW1.9 kmh SSW 2.0 mph3.2 kmh 29.06 in984.1 mb 0.00 in0.0 mm 0.00 in0.0 mm 0.59 in15.0 mm
08:25 PM 48.4°F9.1°C 46.4°F8.0°C 92% 1.5 mph SSW2.4 kmh SSW 2.9 mph4.7 kmh 29.06 in984.1 mb 0.00 in0.0 mm 0.00 in0.0 mm 0.59 in15.0 mm
08:30 PM 48.4°F9.1°C 46.4°F8.0°C 92% 1.6 mph SSW2.6 kmh SSW 2.9 mph4.7 kmh 29.06 in984.1 mb 0.00 in0.0 mm 0.00 in0.0 mm 0.59 in15.0 mm
08:35 PM 48.4°F9.1°C 46.4°F8.0°C 92% 1.6 mph SSW2.6 kmh SSW 2.9 mph4.7 kmh 29.06 in984.1 mb 0.00 in0.0 mm 0.00 in0.0 mm 0.59 in15.0 mm
08:40 PM 48.2°F9.0°C 46.4°F8.0°C 92% 1.5 mph S2.4 kmh S 2.9 mph4.7 kmh 29.06 in984.1 mb 0.00 in0.0 mm 0.00 in0.0 mm 0.59 in15.0 mm
08:45 PM 48.2°F9.0°C 46.4°F8.0°C 92% 1.9 mph S3.1 kmh S 4.3 mph6.9 kmh 29.06 in984.1 mb 0.00 in0.0 mm 0.00 in0.0 mm 0.59 in15.0 mm
08:50 PM 48.2°F9.0°C 46.4°F8.0°C 92% 2.2 mph S3.5 kmh S 4.3 mph6.9 kmh 29.06 in984.1 mb 0.00 in0.0 mm 0.00 in0.0 mm 0.59 in15.0 mm
08:55 PM 48.4°F9.1°C 46.4°F8.0°C 92% 2.2 mph SSW3.5 kmh SSW 3.6 mph5.8 kmh 29.06 in984.1 mb 0.00 in0.0 mm 0.00 in0.0 mm 0.59 in15.0 mm
09:00 PM 48.4°F9.1°C 46.4°F8.0°C 92% 2.3 mph S3.7 kmh S 3.6 mph5.8 kmh 29.06 in984.1 mb 0.00 in0.0 mm 0.00 in0.0 mm 0.59 in15.0 mm
09:05 PM 48.4°F9.1°C 46.4°F8.0°C 92% 2.8 mph SSW4.5 kmh SSW 3.4 mph5.5 kmh 29.06 in984.1 mb 0.00 in0.0 mm 0.00 in0.0 mm 0.59 in15.0 mm
09:10 PM 48.4°F9.1°C 46.4°F8.0°C 92% 3.1 mph S5.0 kmh S 3.4 mph5.5 kmh 29.06 in984.1 mb 0.00 in0.0 mm 0.00 in0.0 mm 0.59 in15.0 mm
09:15 PM 48.4°F9.1°C 46.4°F8.0°C 92% 2.7 mph S4.3 kmh S 3.1 mph5.0 kmh 29.06 in984.1 mb 0.00 in0.0 mm 0.00 in0.0 mm 0.59 in15.0 mm
09:20 PM 48.4°F9.1°C 46.4°F8.0°C 92% 2.0 mph S3.2 kmh S 2.9 mph4.7 kmh 29.06 in984.1 mb 0.00 in0.0 mm 0.00 in0.0 mm 0.59 in15.0 mm
09:25 PM 48.4°F9.1°C 46.4°F8.0°C 92% 2.2 mph SSW3.5 kmh SSW 4.0 mph6.4 kmh 29.06 in984.1 mb 0.00 in0.0 mm 0.00 in0.0 mm 0.59 in15.0 mm
09:30 PM 48.4°F9.1°C 46.4°F8.0°C 92% 2.4 mph SSW3.9 kmh SSW 4.0 mph6.4 kmh 29.06 in984.1 mb 0.00 in0.0 mm 0.00 in0.0 mm 0.59 in15.0 mm
09:35 PM 48.4°F9.1°C 46.4°F8.0°C 92% 2.3 mph S3.7 kmh S 3.4 mph5.5 kmh 29.06 in984.1 mb 0.00 in0.0 mm 0.00 in0.0 mm 0.59 in15.0 mm
09:40 PM 48.4°F9.1°C 46.4°F8.0°C 92% 2.4 mph SSW3.9 kmh SSW 3.4 mph5.5 kmh 29.06 in984.1 mb 0.00 in0.0 mm 0.00 in0.0 mm 0.59 in15.0 mm
09:45 PM 48.6°F9.2°C 46.4°F8.0°C 92% 2.6 mph SSW4.2 kmh SSW 3.4 mph5.5 kmh 29.06 in984.1 mb 0.00 in0.0 mm 0.00 in0.0 mm 0.59 in15.0 mm
09:50 PM 48.6°F9.2°C 46.4°F8.0°C 92% 3.0 mph SW4.8 kmh SW 4.0 mph6.4 kmh 29.06 in984.1 mb 0.00 in0.0 mm 0.00 in0.0 mm 0.59 in15.0 mm
09:55 PM 48.6°F9.2°C 46.4°F8.0°C 92% 2.8 mph SW4.5 kmh SW 4.0 mph6.4 kmh 29.06 in984.1 mb 0.00 in0.0 mm 0.00 in0.0 mm 0.59 in15.0 mm
10:00 PM 48.6°F9.2°C 46.4°F8.0°C 92% 2.1 mph SSW3.4 kmh SSW 3.8 mph6.1 kmh 29.06 in984.1 mb 0.00 in0.0 mm 0.00 in0.0 mm 0.59 in15.0 mm
10:05 PM 48.6°F9.2°C 46.4°F8.0°C 92% 2.1 mph S3.4 kmh S 2.9 mph4.7 kmh 29.06 in984.1 mb 0.00 in0.0 mm 0.00 in0.0 mm 0.59 in15.0 mm
10:10 PM 48.4°F9.1°C 46.4°F8.0°C 92% 2.8 mph S4.5 kmh S 4.7 mph7.6 kmh 29.06 in984.1 mb 0.00 in0.0 mm 0.00 in0.0 mm 0.59 in15.0 mm
10:15 PM 48.4°F9.1°C 46.4°F8.0°C 92% 3.5 mph SSW5.6 kmh SSW 4.7 mph7.6 kmh 29.06 in984.1 mb 0.00 in0.0 mm 0.00 in0.0 mm 0.59 in15.0 mm
10:20 PM 48.4°F9.1°C 46.4°F8.0°C 92% 2.8 mph SSW4.5 kmh SSW 4.0 mph6.4 kmh 29.06 in984.1 mb 0.00 in0.0 mm 0.00 in0.0 mm 0.59 in15.0 mm
10:25 PM 48.4°F9.1°C 46.4°F8.0°C 92% 2.0 mph SSW3.2 kmh SSW 2.9 mph4.7 kmh 29.06 in984.1 mb 0.00 in0.0 mm 0.00 in0.0 mm 0.59 in15.0 mm
10:30 PM 48.2°F9.0°C 46.4°F8.0°C 92% 1.7 mph SSW2.7 kmh SSW 2.9 mph4.7 kmh 29.06 in984.1 mb 0.00 in0.0 mm 0.00 in0.0 mm 0.59 in15.0 mm
10:35 PM 48.2°F9.0°C 46.4°F8.0°C 92% 2.1 mph SSW3.4 kmh SSW 3.8 mph6.1 kmh 29.06 in984.1 mb 0.00 in0.0 mm 0.00 in0.0 mm 0.59 in15.0 mm
10:40 PM 48.4°F9.1°C 46.4°F8.0°C 92% 2.0 mph SSW3.2 kmh SSW 3.8 mph6.1 kmh 29.06 in984.1 mb 0.00 in0.0 mm 0.00 in0.0 mm 0.59 in15.0 mm
10:45 PM 48.2°F9.0°C 46.4°F8.0°C 92% 1.7 mph SSW2.7 kmh SSW 4.0 mph6.4 kmh 29.06 in984.1 mb 0.00 in0.0 mm 0.00 in0.0 mm 0.59 in15.0 mm
10:50 PM 48.2°F9.0°C 46.4°F8.0°C 92% 1.8 mph SSW2.9 kmh SSW 4.0 mph6.4 kmh 29.03 in983.1 mb 0.00 in0.0 mm 0.00 in0.0 mm 0.59 in15.0 mm
10:55 PM 48.2°F9.0°C 46.4°F8.0°C 92% 1.1 mph SW1.8 kmh SW 2.9 mph4.7 kmh 29.03 in983.1 mb 0.00 in0.0 mm 0.00 in0.0 mm 0.59 in15.0 mm
11:00 PM 48.2°F9.0°C 46.4°F8.0°C 92% 0.4 mph SW0.6 kmh SW 1.6 mph2.6 kmh 29.03 in983.1 mb 0.00 in0.0 mm 0.00 in0.0 mm 0.59 in15.0 mm
11:05 PM 48.0°F8.9°C 46.4°F8.0°C 92% 0.1 mph SSW0.2 kmh SSW 0.9 mph1.4 kmh 29.03 in983.1 mb 0.11 in2.8 mm 1.32 in33.5 mm 0.70 in17.8 mm
11:10 PM 48.0°F8.9°C 46.4°F8.0°C 92% 0.1 mph SSW0.2 kmh SSW 0.9 mph1.4 kmh 29.03 in983.1 mb 0.11 in2.8 mm 0.00 in0.0 mm 0.70 in17.8 mm
11:15 PM 48.0°F8.9°C 46.4°F8.0°C 92% 0.5 mph SW0.8 kmh SW 1.1 mph1.8 kmh 29.03 in983.1 mb 0.11 in2.8 mm 0.00 in0.0 mm 0.70 in17.8 mm
11:20 PM 48.2°F9.0°C 46.4°F8.0°C 92% 1.2 mph SSW1.9 kmh SSW 3.8 mph6.1 kmh 29.03 in983.1 mb 0.11 in2.8 mm 0.00 in0.0 mm 0.70 in17.8 mm
11:25 PM 48.0°F8.9°C 46.4°F8.0°C 92% 1.7 mph SSW2.7 kmh SSW 3.8 mph6.1 kmh 29.03 in983.1 mb 0.11 in2.8 mm 0.00 in0.0 mm 0.70 in17.8 mm
11:30 PM 48.2°F9.0°C 46.4°F8.0°C 92% 1.9 mph S3.1 kmh S 3.8 mph6.1 kmh 29.03 in983.1 mb 0.11 in2.8 mm 0.00 in0.0 mm 0.70 in17.8 mm
11:35 PM 48.2°F9.0°C 46.4°F8.0°C 92% 1.4 mph S2.3 kmh S 3.6 mph5.8 kmh 29.03 in983.1 mb 0.11 in2.8 mm 0.00 in0.0 mm 0.70 in17.8 mm
11:40 PM 48.2°F9.0°C 46.4°F8.0°C 92% 1.4 mph SSW2.3 kmh SSW 3.6 mph5.8 kmh 29.03 in983.1 mb 0.11 in2.8 mm 0.00 in0.0 mm 0.70 in17.8 mm
11:45 PM 48.2°F9.0°C 46.4°F8.0°C 92% 1.9 mph S3.1 kmh S 3.4 mph5.5 kmh 29.03 in983.1 mb 0.11 in2.8 mm 0.00 in0.0 mm 0.70 in17.8 mm
11:50 PM 48.2°F9.0°C 46.4°F8.0°C 92% 2.2 mph S3.5 kmh S 4.3 mph6.9 kmh 29.03 in983.1 mb 0.11 in2.8 mm 0.00 in0.0 mm 0.70 in17.8 mm
11:55 PM 48.2°F9.0°C 46.4°F8.0°C 92% 2.8 mph S4.5 kmh S 4.7 mph7.6 kmh 29.03 in983.1 mb 0.11 in2.8 mm 0.00 in0.0 mm 0.70 in17.8 mm